Latest Weather Observations for Liawenee

IDT60801

Issued at 10:01 pm EST Thursday 2 July 2015 (issued every 30 minutes, with the page automatically refreshed every 10 minutes)

About weather observations | Map of weather stations | Latest weather observations for TAS | Other Formats
Station Details ID: 096033 Name: LIAWENEE Lat: -41.90 Lon: 146.67 Height: 1057.0 m
Data from the previous 72 hours. | See also: Recent months at Liawenee
Date/Time
EST
Temp
°C
App
Temp
°C
Dew
Point
Rel
Hum
%
Delta-T
°C
Wind Press
QNH
hPa
Press
MSL
hPa
Rain
since 9 am
mm
Dir
 
Spd
km/h
Gust
km/h
Spd
kts
Gust
kts
02/10:00pm -1.8 -7.7 -2.6 94 0.2 SW 19 24 10 13 1020.3 1022.7 1.0
02/09:30pm -1.9 -8.1 -2.9 93 0.3 SW 20 30 11 16 1020.1 1022.5 1.0
02/09:00pm -1.9 -6.7 -2.6 95 0.2 SW 13 20 7 11 1019.7 1022.2 1.0
02/08:30pm -1.9 -8.5 -3.0 92 0.3 SW 22 26 12 14 1019.2 1021.6 1.0
02/08:00pm -2.0 -9.7 -3.3 91 0.4 SW 28 39 15 21 1018.8 1021.3 1.0
02/07:30pm -1.8 -8.7 -2.6 94 0.2 WSW 24 33 13 18 1018.2 1020.6 1.0
02/07:00pm -1.8 -10.8 -3.1 91 0.4 SW 35 48 19 26 1017.4 1019.8 1.0
02/06:31pm -2.0 -10.7 -3.3 91 0.4 SW 33 52 18 28 1017.3 1019.7 1.0
02/06:30pm -1.9 -11.0 -3.2 91 0.4 SW 35 52 19 28 1017.3 1019.7 1.0
02/06:00pm -2.2 -11.3 -3.5 91 0.3 SW 35 46 19 25 1016.7 1019.1 1.0
02/05:30pm -1.6 -10.6 -2.7 92 0.3 SW 35 48 19 26 1016.4 1018.8 1.0
02/05:00pm -1.6 -8.5 -2.4 94 0.2 SW 24 33 13 18 1016.2 1018.5 1.0
02/04:38pm -1.5 -9.9 -2.8 91 0.4 SW 32 50 17 27 1015.6 1018.0 1.0
02/04:30pm -1.5 -10.1 -2.8 91 0.4 SW 33 48 18 26 1015.4 1017.7 1.0
02/04:22pm -1.5 -10.9 -2.9 90 0.4 SW 37 56 20 30 1015.2 1017.5 1.0
02/04:00pm -1.0 -10.8 -2.7 88 0.6 SW 39 50 21 27 1015.0 1017.3 1.0
02/03:43pm -0.7 -10.0 -2.4 88 0.6 SW 37 56 20 30 1014.7 1017.1 1.0
02/03:30pm -0.5 -9.0 -2.1 89 0.6 SW 33 46 18 25 1014.9 1017.2 1.0
02/03:02pm -0.4 -8.8 -2.1 88 0.6 SW 32 50 17 27 1014.7 1017.1 1.0
02/03:00pm -0.4 -8.9 -2.0 89 0.6 SW 33 50 18 27 1014.7 1017.1 1.0
02/02:30pm 0.3 -7.5 -1.1 90 0.5 SW 30 41 16 22 1014.3 1016.6 1.0
02/02:00pm -0.2 -9.1 -1.9 88 0.6 SW 35 46 19 25 1013.7 1016.0 1.0
02/01:42pm -0.1 -8.6 -1.8 88 0.6 SW 33 52 18 28 1013.4 1015.7 1.0
02/01:30pm 0.2 -7.7 -1.7 87 0.7 SW 30 43 16 23 1013.3 1015.6 1.0
02/01:00pm 0.0 -8.3 -1.6 89 0.6 SW 32 44 17 24 1013.0 1015.2 1.0
02/12:30pm -0.2 -8.1 -1.6 90 0.5 SW 30 46 16 25 1012.5 1014.8 1.0
02/12:00pm -0.2 -8.5 -1.9 88 0.6 SW 32 48 17 26 1012.3 1014.5 0.8
02/11:30am -0.6 -9.8 -1.7 92 0.4 SW 37 50 20 27 1011.8 1014.0 0.8
02/11:00am -0.8 -9.7 -2.1 91 0.4 SW 35 56 19 30 1011.6 1013.9 0.8
02/10:59am -0.9 -9.8 -2.2 91 0.4 SW 35 56 19 30 1011.6 1013.9 0.8
02/10:30am -0.5 -7.7 -1.9 90 0.5 SW 26 35 14 19 1011.6 1013.9 0.8
02/10:00am -0.7 -7.5 -1.8 92 0.4 WSW 24 32 13 17 1011.4 1013.6 0.6
02/09:30am -1.3 -7.8 -2.4 92 0.3 SW 22 30 12 16 1010.6 1012.8 0.6
02/09:00am -1.9 -8.8 -2.9 93 0.3 WSW 24 32 13 17 1010.0 1012.2 4.4
02/08:30am -2.6 -8.8 -3.3 95 0.1 WSW 20 28 11 15 1009.6 1011.8 4.4
02/08:00am -2.1 -9.4 -2.5 97 0.0 WSW 26 37 14 20 1009.4 1011.6 4.4
02/07:30am -2.3 -9.3 -3.6 91 0.3 WSW 24 30 13 16 1008.6 1010.8 4.4
02/07:00am -2.9 -9.5 -3.7 94 0.1 WSW 22 28 12 15 1008.1 1010.2 4.4
02/06:30am -3.0 -9.3 -4.4 90 0.3 WSW 20 28 11 15 1007.3 1009.4 4.4
02/06:00am -2.7 -9.8 -4.1 90 0.4 WSW 24 35 13 19 1006.7 1008.7 4.4
02/05:30am -2.2 -10.7 -2.9 95 0.1 WSW 32 43 17 23 1006.4 1008.5 4.4
02/05:13am -1.8 -10.3 -3.1 91 0.4 WSW 32 50 17 27 1006.4 1008.5 4.4
02/05:00am -2.2 -10.7 -3.3 92 0.3 WSW 32 43 17 23 1006.2 1008.3 4.4
02/04:30am -2.6 -10.3 -3.3 95 0.1 WSW 28 41 15 22 1006.0 1008.1 4.4
02/04:00am -2.5 -9.9 -3.9 90 0.4 WSW 26 35 14 19 1005.7 1007.7 4.4
02/03:30am -2.1 -10.8 -3.7 89 0.5 WSW 33 44 18 24 1005.8 1007.8 4.4
02/03:13am -2.1 -11.1 -2.9 94 0.2 WSW 35 54 19 29 1005.9 1008.0 4.4
02/03:00am -1.8 -10.4 -2.2 97 0.1 WSW 33 44 18 24 1006.0 1008.1 4.4
02/02:30am -1.3 -11.9 -3.0 88 0.5 WSW 43 65 23 35 1005.5 1007.6 4.4
02/02:21am -1.1 -10.1 -3.0 87 0.6 W 35 54 19 29 1005.5 1007.6 4.4
02/02:00am -0.8 -10.6 -3.0 85 0.8 WSW 39 52 21 28 1005.2 1007.3 4.4
02/01:30am -0.6 -11.2 -3.0 84 0.8 WSW 43 70 23 38 1005.1 1007.2 4.4
02/01:00am -0.2 -11.2 -2.3 86 0.8 WSW 46 67 25 36 1005.0 1007.0 4.4
02/12:38am -0.4 -10.0 -1.5 92 0.4 WSW 39 57 21 31 1005.0 1007.0 4.4
02/12:30am 0.0 -10.4 -2.1 86 0.8 WSW 43 59 23 32 1005.0 1007.0 4.4
02/12:03am 0.0 -10.0 -1.6 89 0.6 WSW 41 59 22 32 1005.0 1007.0 4.4
02/12:00am 0.1 -10.5 -1.6 88 0.6 WSW 44 59 24 32 1005.1 1007.2 4.4
 
Date/Time
EST
Temp
°C
App
Temp
°C
Dew
Point
Rel
Hum
%
Delta-T
°C
Wind Press
QNH
hPa
Press
MSL
hPa
Rain
since 9 am
mm
Dir
 
Spd
km/h
Gust
km/h
Spd
kts
Gust
kts
01/11:37pm 0.5 -9.8 -0.8 91 0.5 WSW 43 61 23 33 1005.3 1007.4 4.4
01/11:30pm 0.4 -10.4 -0.6 93 0.4 WSW 46 61 25 33 1005.2 1007.3 4.4
01/11:10pm 0.6 -7.4 0.3 98 0.1 WSW 32 56 17 30 1005.2 1007.3 4.4
01/11:00pm 0.6 -7.4 0.2 97 0.2 WSW 32 41 17 22 1005.2 1007.3 4.2
01/10:30pm 1.2 -8.5 0.5 95 0.3 WSW 41 61 22 33 1005.2 1007.3 3.8
01/10:00pm 1.4 -6.8 0.5 94 0.4 W 33 52 18 28 1005.2 1007.3 3.8
01/09:51pm 1.4 -6.2 0.7 95 0.3 W 30 52 16 28 1005.5 1007.6 3.8
01/09:30pm 1.6 -5.6 1.0 96 0.2 W 28 39 15 21 1006.4 1008.5 3.6
01/09:00pm 1.7 -6.4 1.1 96 0.2 W 33 48 18 26 1006.9 1009.0 3.6
01/08:32pm 3.2 -4.1 2.3 94 0.4 W 30 52 16 28 1007.4 1009.5 1.8
01/08:30pm 3.2 -3.7 2.3 94 0.4 WNW 28 41 15 22 1007.3 1009.4 1.8
01/08:10pm 3.5 -4.2 2.5 93 0.4 WNW 32 50 17 27 1006.1 1008.2 0.4
01/08:00pm 3.8 -4.4 2.5 91 0.6 WNW 35 50 19 27 1005.9 1008.0 0.4
01/07:30pm 3.8 -4.9 2.0 88 0.8 WNW 37 59 20 32 1005.3 1007.4 0.4
01/07:00pm 3.6 -3.8 1.6 87 0.8 NW 30 56 16 30 1006.7 1008.7 0.2
01/06:30pm 4.2 -4.2 1.6 83 1.1 WNW 35 56 19 30 1007.7 1009.8 0.2
01/06:04pm 3.6 -3.9 1.3 85 1.0 WNW 30 52 16 28 1008.5 1010.7 0.2
01/06:00pm 3.5 -3.2 1.2 85 1.0 WNW 26 43 14 23 1008.6 1010.8 0.2
01/05:31pm 2.9 -4.6 1.3 89 0.7 WNW 30 48 16 26 1009.1 1011.3 0.2
01/05:30pm 2.9 -5.0 1.1 88 0.7 WNW 32 48 17 26 1009.1 1011.3 0.2
01/05:00pm 2.6 -5.9 1.1 90 0.6 WNW 35 56 19 30 1009.3 1011.5 0.2
01/04:30pm 3.1 -5.5 0.5 83 1.1 WNW 35 59 19 32 1009.3 1011.5 0.2
01/04:00pm 3.1 -6.1 1.0 86 0.9 WNW 39 65 21 35 1009.8 1011.9 0.2
01/03:30pm 3.5 -3.5 1.9 89 0.7 WNW 28 48 15 26 1011.2 1013.4 0.2
01/03:25pm 3.6 -3.8 1.8 88 0.8 WNW 30 48 16 26 1011.3 1013.5 0.2
01/03:00pm 4.0 -2.5 2.7 91 0.6 WNW 26 41 14 22 1011.5 1013.8 0.0
01/02:30pm 4.3 -1.8 2.5 88 0.8 NW 24 39 13 21 1011.9 1014.1 0.0
01/02:00pm 4.2 -2.0 2.4 88 0.8 NW 24 43 13 23 1012.4 1014.7 0.0
01/01:30pm 4.3 -1.5 2.3 87 0.9 NW 22 48 12 26 1013.0 1015.2 0.0
01/01:03pm 4.4 -2.6 2.1 85 1.0 WNW 28 52 15 28 1013.7 1016.0 0.0
01/01:00pm 4.4 -2.5 2.3 86 0.9 WNW 28 44 15 24 1013.9 1016.1 0.0
01/12:44pm 4.7 -2.7 1.9 82 1.2 WNW 30 50 16 27 1014.2 1016.5 0.0
01/12:30pm 4.8 -2.2 2.0 82 1.2 WNW 28 39 15 21 1014.4 1016.7 0.0
01/12:00pm 4.6 -1.7 1.3 79 1.4 WNW 24 46 13 25 1015.3 1017.6 0.0
01/11:30am 5.1 -0.8 1.8 79 1.4 WNW 22 39 12 21 1016.3 1018.6 0.0
01/11:08am 5.1 -2.0 1.4 77 1.6 WNW 28 46 15 25 1016.8 1019.2 0.0
01/11:00am 4.5 -3.0 1.2 79 1.4 WNW 30 44 16 24 1017.1 1019.4 0.0
01/10:30am 3.4 -2.2 1.0 84 1.0 WNW 20 32 11 17 1017.7 1020.1 0.0
01/10:00am 3.6 -2.7 1.3 85 1.0 WNW 24 35 13 19 1018.1 1020.5 0.0
01/09:30am 2.9 -3.5 1.0 87 0.8 W 24 35 13 19 1018.1 1020.2 0.0
01/09:00am 2.3 -4.1 1.1 92 0.5 W 24 33 13 18 1018.4 1020.5 0.0
01/08:30am 2.0 -2.7 1.0 93 0.4 WNW 15 24 8 13 1018.6 1020.7 0.0
01/08:00am 1.7 -3.4 0.7 93 0.4 WNW 17 24 9 13 1018.5 1020.6 0.0
01/07:30am 1.4 -4.1 0.5 94 0.4 WNW 19 28 10 15 1018.7 1020.8 0.0
01/07:00am 0.9 -4.0 -0.2 92 0.4 W 15 24 8 13 1019.3 1021.4 0.0
01/06:30am 1.6 -2.8 0.6 93 0.4 W 13 20 7 11 1019.3 1021.4 0.0
01/06:00am 1.6 -4.8 0.7 94 0.4 W 24 35 13 19 1019.3 1021.4 0.0
01/05:30am 1.4 -4.1 0.8 96 0.2 W 19 28 10 15 1019.7 1021.9 0.0
01/05:00am 1.3 -4.8 0.7 96 0.2 WNW 22 30 12 16 1019.8 1022.0 0.0
01/04:30am 0.0 -4.8 -0.1 99 0.0 W 15 24 8 13 1020.2 1022.3 0.0
01/04:00am -1.4 -5.4 -2.0 96 0.2 SW 9 15 5 8 1020.3 1022.4 0.0
01/03:30am -1.3 -4.9 -2.0 95 0.2 WNW 7 11 4 6 1020.6 1022.8 0.0
01/03:00am -1.0 -5.2 -1.0 100 0.0 NW 11 15 6 8 1021.1 1023.2 0.0
01/02:30am -4.6 -8.4 -5.1 96 0.0 NNE 6 11 3 6 1021.4 1023.6 0.0
01/02:00am -5.6 -8.3 -6.1 96 -0.1 CALM 0 0 0 0 1021.5 1023.7 0.0
01/01:30am -5.5 -9.0 -6.2 95 0.0 NW 4 6 2 3 1021.7 1023.9 0.0
01/01:00am -3.7 -7.4 -4.2 96 0.0 WNW 6 13 3 7 1021.8 1024.0 0.0
01/12:30am -4.5 -8.2 -4.6 99 -0.2 NW 6 7 3 4 1022.2 1024.4 0.0
01/12:00am -5.3 -8.0 -5.8 96 -0.1 CALM 0 0 0 0 1022.5 1024.7 0.0
 
Date/Time
EST
Temp
°C
App
Temp
°C
Dew
Point
Rel
Hum
%
Delta-T
°C
Wind Press
QNH
hPa
Press
MSL
hPa
Rain
since 9 am
mm
Dir
 
Spd
km/h
Gust
km/h
Spd
kts
Gust
kts
30/11:30pm -4.2 -7.1 -4.5 98 -0.1 NNE 2 9 1 5 1022.6 1024.8 0.0
30/11:00pm -4.1 -6.7 -4.9 94 0.1 CALM 0 0 0 0 1022.7 1024.9 0.0
30/10:30pm -2.6 -6.1 -3.0 97 0.0 NNW 6 11 3 6 1022.6 1024.8 0.0
30/10:00pm -3.7 -6.7 -4.8 92 0.2 W 2 7 1 4 1022.9 1025.2 0.0
30/09:30pm -3.4 -7.1 -4.4 93 0.2 NE 6 7 3 4 1022.7 1024.9 0.0
30/09:00pm -3.1 -6.8 -4.4 91 0.3 N 6 7 3 4 1022.6 1024.8 0.0
30/08:30pm -2.7 -5.2 -4.1 90 0.4 CALM 0 0 0 0 1022.8 1025.1 0.0
30/08:00pm -1.5 -5.4 -4.3 81 0.9 NW 7 9 4 5 1022.8 1025.1 0.0
30/07:30pm -0.6 -4.7 -3.0 84 0.8 W 9 11 5 6 1023.1 1025.3 0.0
30/07:00pm 0.8 -3.6 -2.8 77 1.4 WNW 11 13 6 7 1022.9 1025.2 0.0
30/06:30pm 0.1 -4.8 -3.1 79 1.2 W 13 15 7 8 1023.1 1025.3 0.0
30/06:00pm -0.2 -3.9 -4.6 72 1.5 SW 6 9 3 5 1022.9 1025.2 0.0
30/05:30pm 2.5 -2.0 -3.0 67 2.0 WNW 11 13 6 7 1022.5 1024.7 0.0
30/05:00pm 2.3 -2.2 -3.6 65 2.1 W 11 13 6 7 1022.5 1024.7 0.0
30/04:30pm 4.5 -0.7 -3.0 58 2.8 W 15 19 8 10 1022.6 1024.8 0.0
30/04:00pm 6.3 2.7 -2.3 54 3.4 SW 7 11 4 6 1022.5 1024.7 0.0
30/03:30pm 7.1 1.1 -3.1 48 4.0 WSW 19 30 10 16 1022.5 1024.7 0.0
30/03:00pm 8.1 1.5 -3.7 43 4.5 SW 22 28 12 15 1022.4 1024.6 0.0
30/02:30pm 9.7 3.5 -4.6 36 5.5 WSW 19 24 10 13 1022.3 1024.5 0.0
30/02:00pm 9.9 4.0 -5.2 34 5.7 WSW 17 24 9 13 1022.3 1024.5 0.0
30/01:30pm 10.1 4.2 -5.4 33 5.9 W 17 22 9 12 1022.5 1024.7 0.0
30/01:00pm 10.5 5.0 -5.1 33 6.0 W 15 22 8 12 1022.5 1024.7 0.0
30/12:30pm 10.5 5.3 -5.9 31 6.2 WNW 13 20 7 11 1022.8 1025.1 0.0
30/12:00pm 10.0 4.6 -4.7 35 5.6 W 15 20 8 11 1023.2 1025.4 0.0
30/11:30am 9.0 4.0 -4.2 39 5.1 W 13 17 7 9 1023.8 1026.1 0.0
30/11:00am 8.5 3.7 -2.7 45 4.4 W 13 19 7 10 1024.3 1026.5 0.0
30/10:30am 7.5 3.0 -3.4 46 4.2 W 11 17 6 9 1024.4 1026.6 0.0
30/10:00am 6.4 3.8 -2.0 55 3.3 WSW 2 7 1 4 1024.4 1026.6 0.0
30/09:30am 3.7 1.5 -1.3 70 1.9 CALM 0 0 0 0 1024.4 1026.6 0.0
30/09:00am 1.8 -1.8 -2.3 74 1.5 NE 7 9 4 5 1024.4 1026.6 0.0
30/08:30am -1.5 -5.4 -4.3 81 0.9 NE 7 9 4 5 1024.4 1026.6 0.0
30/08:00am -4.6 -7.4 -6.6 86 0.4 CALM 0 0 0 0 1024.2 1026.4 0.0
30/07:30am -3.9 -7.8 -7.0 79 0.8 SW 6 7 3 4 1024.1 1026.3 0.0
30/07:00am -2.8 -6.9 -6.3 77 1.0 WSW 7 9 4 5 1024.2 1026.4 0.0
30/06:30am 0.0 -5.0 -4.2 73 1.5 WNW 13 19 7 10 1023.8 1026.1 0.0
30/06:00am -3.1 -7.5 -5.9 81 0.8 W 9 13 5 7 1023.9 1026.2 0.0
30/05:30am -5.4 -8.6 -7.4 86 0.4 N 2 6 1 3 1023.8 1026.1 0.0
30/05:00am -5.6 -9.2 -7.3 88 0.3 NNW 4 9 2 5 1023.7 1026.0 0.0
30/04:30am -3.9 -8.4 -6.5 82 0.7 WNW 9 11 5 6 1023.8 1026.1 0.0
30/04:00am -4.3 -8.4 -6.9 82 0.6 SW 7 9 4 5 1023.9 1026.2 0.0
30/03:30am -5.3 -8.1 -7.1 87 0.3 CALM 0 0 0 0 1024.1 1026.3 0.0
30/03:00am -5.5 -8.3 -7.2 88 0.3 CALM 0 0 0 0 1024.2 1026.4 0.0
30/02:30am -5.8 -8.7 -7.6 87 0.3 CALM 0 0 0 0 1024.4 1026.6 0.0
30/02:00am -4.8 -7.6 -6.8 86 0.4 CALM 0 0 0 0 1024.4 1026.6 0.0
30/01:30am -4.1 -7.7 -7.0 80 0.7 S 4 7 2 4 1024.6 1026.9 0.0
30/01:00am -3.2 -5.9 -6.3 79 0.8 CALM 0 0 0 0 1024.7 1027.0 0.0
30/12:30am -3.2 -7.1 -6.1 80 0.8 SW 6 7 3 4 1024.9 1027.2 0.0
30/12:00am -2.8 -6.6 -5.8 80 0.8 NNE 6 7 3 4 1025.2 1027.4 0.0
 
Date/Time
EST
Temp
°C
App
Temp
°C
Dew
Point
Rel
Hum
%
Delta-T
°C
Wind Press
QNH
hPa
Press
MSL
hPa
Rain
since 9 am
mm
Dir
 
Spd
km/h
Gust
km/h
Spd
kts
Gust
kts
29/11:30pm -2.9 -5.6 -6.2 78 0.9 CALM 0 0 0 0 1025.2 1027.4 0.0
29/11:00pm -0.8 -4.3 -5.9 68 1.6 E 4 7 2 4 1025.2 1027.4 0.0
29/10:30pm -0.2 -4.1 -4.8 71 1.6 NE 7 13 4 7 1025.4 1027.7 0.0

Other Formats:

Comma delimited format used in spreadsheet applications
http://www.bom.gov.au/fwo/IDT60801/IDT60801.95959.axf

JavaScript Object Notation format (JSON) in row-major order
http://www.bom.gov.au/fwo/IDT60801/IDT60801.95959.json